Time;durP1;ratioP1;P1;durP2;ratioP2;P2;SDS_P1;SDS_P2;PMS_P1;PMS_P2;Temp;Humidity;BMP_temperature;BMP_pressure;BME280_temperature;BME280_humidity;BME280_pressure;Samples;Min_cycle;Max_cycle;Signal;HPM_P1;HPM_P2
2023/05/18 00:01:29;;;;;;;7.60;2.73;;;9.70;83.10;;;;;;5052843;28;21035;-72
2023/05/18 00:04:16;;;;;;;10.37;2.90;;;9.60;83.00;;;;;;5050720;28;20484;-73
2023/05/18 00:07:03;;;;;;;8.07;3.20;;;9.60;83.20;;;;;;5049172;28;20481;-73
2023/05/18 00:09:49;;;;;;;15.40;3.00;;;9.50;82.20;;;;;;5051862;28;20835;-73
2023/05/18 00:12:34;;;;;;;11.17;3.10;;;9.50;83.70;;;;;;5048383;28;20415;-72
2023/05/18 00:15:20;;;;;;;5.77;2.80;;;9.40;83.40;;;;;;5059854;28;20440;-73
2023/05/18 00:18:07;;;;;;;7.90;2.53;;;9.40;83.90;;;;;;5046317;28;20418;-73
2023/05/18 00:20:57;;;;;;;28.13;4.23;;;9.50;83.30;;;;;;5051344;28;20605;-72
2023/05/18 00:23:48;;;;;;;9.63;3.10;;;9.40;82.90;;;;;;5049622;28;20436;-73
2023/05/18 00:26:33;;;;;;;14.60;2.77;;;9.50;80.90;;;;;;5048301;28;20968;-73
2023/05/18 00:29:19;;;;;;;5.03;2.10;;;9.50;81.50;;;;;;5048520;28;20420;-74
2023/05/18 00:32:05;;;;;;;8.90;2.63;;;9.50;80.30;;;;;;5047687;28;20490;-74
2023/05/18 00:34:52;;;;;;;11.30;3.33;;;9.50;82.00;;;;;;5050831;28;20584;-73
2023/05/18 00:37:37;;;;;;;9.40;2.97;;;9.40;81.80;;;;;;5058671;28;20414;-73
2023/05/18 00:40:25;;;;;;;9.80;3.00;;;9.40;80.70;;;;;;5058790;28;20444;-73
2023/05/18 00:43:10;;;;;;;6.70;2.80;;;9.40;80.60;;;;;;5056548;28;20418;-73
2023/05/18 00:45:56;;;;;;;10.07;2.80;;;9.40;81.80;;;;;;5045767;28;20445;-73
2023/05/18 00:48:42;;;;;;;6.20;2.83;;;9.50;80.80;;;;;;5040065;28;20470;-73
2023/05/18 00:51:30;;;;;;;11.03;2.97;;;9.50;80.30;;;;;;5048200;28;20501;-73
2023/05/18 00:54:16;;;;;;;6.20;2.67;;;9.50;80.60;;;;;;5047311;28;20570;-74
2023/05/18 00:57:02;;;;;;;6.50;2.30;;;9.50;79.60;;;;;;5046486;28;20969;-74
2023/05/18 00:59:48;;;;;;;8.20;3.10;;;9.40;80.40;;;;;;5048677;28;20552;-73
2023/05/18 01:02:35;;;;;;;8.50;2.27;;;9.40;79.90;;;;;;5050240;28;20414;-70
2023/05/18 01:05:21;;;;;;;12.93;2.83;;;9.50;78.90;;;;;;5044213;28;20458;-74
2023/05/18 01:08:08;;;;;;;7.33;2.80;;;9.50;77.40;;;;;;5056252;28;20423;-74
2023/05/18 01:10:57;;;;;;;7.03;2.50;;;9.60;77.70;;;;;;5041965;28;20442;-71
2023/05/18 01:13:53;;;;;;;7.20;2.70;;;9.70;76.40;;;;;;5050344;28;20475;-73
2023/05/18 01:16:44;;;;;;;11.53;3.73;;;9.80;74.70;;;;;;5044065;28;20427;-73
2023/05/18 01:19:54;;;;;;;7.43;2.80;;;9.90;73.30;;;;;;5047574;28;20490;-73
2023/05/18 01:23:00;;;;;;;8.63;4.10;;;9.80;74.20;;;;;;5053016;28;20422;-73
2023/05/18 01:26:13;;;;;;;9.83;3.50;;;9.90;72.40;;;;;;5049223;28;20927;-73
2023/05/18 01:29:01;;;;;;;9.90;2.77;;;9.90;70.80;;;;;;5054509;28;20955;-74
2023/05/18 01:31:46;;;;;;;12.40;3.37;;;10.00;70.60;;;;;;5046018;28;20464;-74
2023/05/18 01:34:31;;;;;;;13.47;2.70;;;10.00;70.50;;;;;;5052829;28;20472;-73
2023/05/18 01:37:17;;;;;;;13.83;2.40;;;9.90;71.00;;;;;;5050343;28;20410;-73
2023/05/18 01:40:04;;;;;;;7.27;2.80;;;10.00;69.10;;;;;;5049965;28;20847;-73
2023/05/18 01:42:59;;;;;;;9.10;2.87;;;9.90;70.40;;;;;;5050384;28;20448;-74
2023/05/18 01:45:49;;;;;;;10.93;2.90;;;9.90;69.50;;;;;;5047350;28;20809;-73
2023/05/18 01:48:37;;;;;;;13.63;2.83;;;10.00;69.10;;;;;;5055815;28;20531;-73
2023/05/18 01:51:26;;;;;;;11.17;3.47;;;9.90;69.40;;;;;;5050513;28;20472;-74
2023/05/18 01:54:15;;;;;;;11.50;2.57;;;10.00;69.50;;;;;;5050348;28;20438;-74
2023/05/18 01:57:01;;;;;;;7.90;2.53;;;9.90;69.80;;;;;;5046478;28;20419;-73
2023/05/18 01:59:49;;;;;;;9.67;3.20;;;9.90;69.40;;;;;;5053766;28;20587;-73
2023/05/18 02:02:35;;;;;;;14.50;2.77;;;9.90;70.50;;;;;;5051752;28;20537;-73
2023/05/18 02:05:20;;;;;;;9.23;3.10;;;9.90;70.40;;;;;;5049696;28;20521;-72
2023/05/18 02:08:06;;;;;;;10.07;2.77;;;9.90;70.70;;;;;;5061657;28;20973;-72
2023/05/18 02:10:51;;;;;;;12.03;2.97;;;9.90;71.00;;;;;;5047168;28;20537;-73
2023/05/18 02:13:37;;;;;;;11.03;2.50;;;9.80;71.20;;;;;;5051926;28;20442;-73
2023/05/18 02:16:24;;;;;;;8.50;2.90;;;9.80;71.00;;;;;;5049651;28;20579;-74
2023/05/18 02:19:10;;;;;;;7.77;2.30;;;9.70;72.40;;;;;;5056227;28;20813;-73
2023/05/18 02:21:56;;;;;;;6.50;2.30;;;9.70;71.80;;;;;;5051869;28;20425;-73
2023/05/18 02:24:41;;;;;;;5.83;2.53;;;9.70;73.70;;;;;;5056681;28;20468;-72
2023/05/18 02:27:27;;;;;;;9.70;2.67;;;9.60;75.40;;;;;;5049410;28;20784;-74
2023/05/18 02:30:13;;;;;;;5.87;2.40;;;9.40;76.20;;;;;;5044485;28;20594;-73
2023/05/18 02:32:59;;;;;;;8.40;2.20;;;9.30;78.10;;;;;;5047011;28;20796;-74
2023/05/18 02:35:45;;;;;;;16.63;3.60;;;9.20;78.90;;;;;;5049176;28;20583;-73
2023/05/18 02:38:30;;;;;;;7.77;2.63;;;9.00;79.30;;;;;;5051834;28;20418;-73
2023/05/18 02:41:15;;;;;;;10.23;2.93;;;8.90;81.50;;;;;;5053701;28;20444;-74
2023/05/18 02:44:02;;;;;;;8.40;2.90;;;8.80;81.60;;;;;;5052493;28;20473;-73
2023/05/18 02:46:47;;;;;;;11.13;2.73;;;8.70;83.10;;;;;;5050118;28;20961;-74
2023/05/18 02:49:34;;;;;;;9.13;3.00;;;8.70;83.40;;;;;;5052346;28;20839;-73
2023/05/18 02:52:20;;;;;;;6.57;2.80;;;8.60;84.50;;;;;;5053818;28;20458;-71
2023/05/18 02:55:05;;;;;;;8.47;2.60;;;8.50;85.20;;;;;;5052176;28;20464;-70
2023/05/18 02:57:55;;;;;;;7.70;2.63;;;8.50;84.70;;;;;;5045159;28;20498;-71
2023/05/18 03:00:41;;;;;;;10.77;2.97;;;8.60;85.10;;;;;;5045790;28;20414;-73
2023/05/18 03:03:26;;;;;;;12.23;2.70;;;8.40;85.20;;;;;;5046708;28;20531;-71
2023/05/18 03:06:14;;;;;;;5.70;2.77;;;8.30;85.00;;;;;;5053097;28;20450;-70
2023/05/18 03:08:59;;;;;;;6.20;3.20;;;8.40;86.20;;;;;;5042149;28;20427;-70
2023/05/18 03:11:45;;;;;;;13.83;3.33;;;8.30;85.80;;;;;;5056918;28;20463;-71
2023/05/18 03:14:30;;;;;;;5.73;3.20;;;8.10;87.40;;;;;;5049481;28;20496;-70
2023/05/18 03:17:16;;;;;;;10.40;4.03;;;8.10;88.50;;;;;;5053899;28;20435;-70
2023/05/18 03:20:05;;;;;;;9.67;3.07;;;7.90;89.80;;;;;;5043785;28;20415;-70
2023/05/18 03:22:52;;;;;;;11.60;3.23;;;7.90;90.00;;;;;;5050046;28;20539;-73
2023/05/18 03:25:38;;;;;;;11.13;3.47;;;8.00;89.90;;;;;;5053520;28;20444;-70
2023/05/18 03:28:23;;;;;;;11.13;3.33;;;8.00;89.90;;;;;;5049315;28;20579;-72
2023/05/18 03:31:09;;;;;;;11.33;3.00;;;8.00;90.30;;;;;;5052526;28;20525;-70
2023/05/18 03:33:55;;;;;;;6.33;3.17;;;8.00;90.10;;;;;;5052896;28;20487;-70
2023/05/18 03:36:46;;;;;;;9.77;3.10;;;8.10;88.60;;;;;;5049220;28;20867;-70
2023/05/18 03:39:32;;;;;;;8.03;3.23;;;8.10;88.50;;;;;;5044890;28;20467;-70
2023/05/18 03:42:18;;;;;;;5.97;3.27;;;8.20;88.40;;;;;;5051261;28;20540;-72
2023/05/18 03:45:04;;;;;;;13.87;3.80;;;8.30;87.40;;;;;;5047920;28;20468;-70
2023/05/18 03:47:50;;;;;;;6.60;2.73;;;8.40;86.90;;;;;;5052426;28;20454;-70
2023/05/18 03:50:35;;;;;;;6.50;2.70;;;8.40;86.10;;;;;;5045859;28;20460;-70
2023/05/18 03:53:20;;;;;;;8.83;2.87;;;8.50;86.20;;;;;;5047477;28;20972;-71
2023/05/18 03:56:07;;;;;;;7.37;3.30;;;8.50;85.80;;;;;;5049799;28;20871;-70
2023/05/18 03:58:53;;;;;;;6.57;2.60;;;8.60;86.80;;;;;;5045458;28;20422;-74
2023/05/18 04:01:41;;;;;;;8.97;3.10;;;8.60;86.00;;;;;;5047480;28;20491;-70
2023/05/18 04:04:26;;;;;;;25.60;3.63;;;8.70;84.60;;;;;;5049569;28;20579;-70
2023/05/18 04:07:11;;;;;;;6.70;3.30;;;8.70;84.40;;;;;;5045089;28;20930;-70
2023/05/18 04:09:57;;;;;;;5.93;2.73;;;8.70;84.90;;;;;;5041795;28;20939;-70
2023/05/18 04:12:44;;;;;;;9.00;2.93;;;8.70;84.60;;;;;;5048098;28;20444;-70
2023/05/18 04:15:29;;;;;;;11.07;3.67;;;8.70;84.30;;;;;;5049205;28;20989;-70
2023/05/18 04:18:16;;;;;;;6.67;2.80;;;8.70;84.60;;;;;;5043890;28;20444;-70
2023/05/18 04:21:01;;;;;;;7.70;3.20;;;8.60;85.50;;;;;;5041131;28;20452;-71
2023/05/18 04:23:47;;;;;;;13.03;3.37;;;8.60;85.90;;;;;;5040337;28;20594;-70
2023/05/18 04:26:35;;;;;;;7.77;2.77;;;8.60;86.30;;;;;;5056957;28;20957;-70
2023/05/18 04:29:22;;;;;;;10.90;3.30;;;8.60;86.70;;;;;;5044449;28;20442;-70
2023/05/18 04:32:09;;;;;;;4.60;2.60;;;8.60;87.20;;;;;;5055581;28;20647;-74
2023/05/18 04:34:57;;;;;;;7.40;3.03;;;8.60;88.70;;;;;;5053980;28;20474;-71
2023/05/18 04:37:42;;;;;;;7.13;4.37;;;8.70;87.50;;;;;;5062295;28;20503;-71
2023/05/18 04:40:32;;;;;;;11.30;3.13;;;8.70;85.60;;;;;;5047168;28;20856;-72
2023/05/18 04:43:18;;;;;;;15.30;3.30;;;8.90;84.70;;;;;;5053579;28;20465;-72
2023/05/18 04:46:05;;;;;;;9.63;2.60;;;9.00;82.80;;;;;;5052579;28;20451;-70
2023/05/18 04:48:51;;;;;;;12.47;3.90;;;9.10;81.00;;;;;;5055571;28;20438;-71
2023/05/18 04:51:37;;;;;;;17.00;3.50;;;9.20;80.20;;;;;;5047215;28;20521;-70
2023/05/18 04:54:23;;;;;;;11.30;3.10;;;9.40;79.90;;;;;;5052442;28;20467;-72
2023/05/18 04:57:08;;;;;;;12.47;3.77;;;9.50;79.90;;;;;;5044059;28;20527;-73
2023/05/18 04:59:54;;;;;;;7.33;2.93;;;9.60;78.60;;;;;;5050244;28;20538;-70
2023/05/18 05:02:40;;;;;;;10.23;3.30;;;9.70;76.40;;;;;;5047179;28;20533;-71
2023/05/18 05:05:26;;;;;;;8.60;3.30;;;9.80;75.90;;;;;;5053785;28;20446;-70
2023/05/18 05:08:12;;;;;;;11.10;3.80;;;9.90;74.40;;;;;;5046300;28;20436;-70
2023/05/18 05:10:57;;;;;;;7.20;3.13;;;9.90;74.00;;;;;;5050768;28;20834;-71
2023/05/18 05:13:43;;;;;;;7.40;3.17;;;10.10;72.30;;;;;;5050560;28;20502;-71
2023/05/18 05:16:28;;;;;;;11.83;2.90;;;10.10;71.90;;;;;;5054650;28;20422;-71
2023/05/18 05:19:15;;;;;;;12.27;3.10;;;10.20;71.30;;;;;;5050314;28;20465;-71
2023/05/18 05:22:01;;;;;;;12.13;2.60;;;10.30;70.00;;;;;;5051555;28;20439;-70
2023/05/18 05:24:47;;;;;;;8.53;2.97;;;10.40;70.40;;;;;;5052020;28;20834;-71
2023/05/18 05:27:32;;;;;;;6.20;2.80;;;10.50;71.40;;;;;;5048386;28;20468;-70
2023/05/18 05:30:18;;;;;;;14.47;3.07;;;10.50;69.80;;;;;;5054001;28;20431;-71
2023/05/18 05:33:04;;;;;;;10.73;3.30;;;10.60;69.20;;;;;;5051203;28;20415;-71
2023/05/18 05:35:50;;;;;;;10.30;3.20;;;10.60;70.20;;;;;;5044090;28;20962;-70
2023/05/18 05:38:36;;;;;;;7.90;2.60;;;10.70;67.80;;;;;;5049218;28;20418;-73
2023/05/18 05:41:22;;;;;;;7.03;2.70;;;10.80;68.00;;;;;;5045719;28;20445;-70
2023/05/18 05:44:07;;;;;;;11.20;2.73;;;10.80;68.00;;;;;;5052016;28;20435;-73
2023/05/18 05:46:53;;;;;;;5.20;2.37;;;10.90;67.20;;;;;;5057091;28;20859;-71
2023/05/18 05:49:38;;;;;;;10.50;3.80;;;10.90;67.20;;;;;;5047166;28;20431;-71
2023/05/18 05:52:27;;;;;;;8.80;3.27;;;10.90;67.20;;;;;;5056200;28;20438;-70
2023/05/18 05:55:12;;;;;;;10.97;3.17;;;11.00;67.30;;;;;;5046317;28;20456;-73
2023/05/18 05:57:58;;;;;;;15.67;3.13;;;11.00;65.40;;;;;;5044503;28;20438;-70
2023/05/18 06:00:45;;;;;;;13.37;2.50;;;11.10;66.10;;;;;;5042638;28;20444;-70
2023/05/18 06:03:31;;;;;;;8.03;2.70;;;11.20;64.90;;;;;;5054715;28;20459;-72
2023/05/18 06:06:16;;;;;;;8.90;2.93;;;11.30;64.10;;;;;;5047511;28;20444;-71
2023/05/18 06:09:03;;;;;;;10.63;3.23;;;11.30;63.70;;;;;;5051663;28;20439;-71
2023/05/18 06:11:49;;;;;;;8.47;2.70;;;11.40;64.40;;;;;;5054599;28;20476;-71
2023/05/18 06:14:34;;;;;;;8.13;2.90;;;11.50;64.00;;;;;;5048812;28;20487;-70
2023/05/18 06:17:20;;;;;;;10.73;2.90;;;11.50;63.90;;;;;;5047032;28;20941;-71
2023/05/18 06:20:06;;;;;;;10.90;2.87;;;11.60;64.20;;;;;;5054971;28;20958;-70
2023/05/18 06:22:52;;;;;;;11.10;3.13;;;11.60;64.70;;;;;;5046492;28;20422;-73
2023/05/18 06:25:39;;;;;;;7.00;2.60;;;11.70;64.60;;;;;;5052292;28;20448;-71
2023/05/18 06:28:24;;;;;;;12.63;3.00;;;11.80;64.00;;;;;;5045749;28;20418;-71
2023/05/18 06:31:11;;;;;;;8.67;2.90;;;11.80;63.50;;;;;;5036734;28;20538;-72
2023/05/18 06:33:56;;;;;;;8.67;2.63;;;11.90;63.90;;;;;;5041425;28;20539;-71
2023/05/18 06:36:42;;;;;;;12.90;3.90;;;12.00;63.30;;;;;;5043309;28;22484;-71
2023/05/18 06:39:28;;;;;;;11.67;3.37;;;12.00;62.60;;;;;;5046975;28;20548;-71
2023/05/18 06:42:14;;;;;;;8.43;2.90;;;12.20;62.40;;;;;;5053127;28;20974;-71
2023/05/18 06:45:00;;;;;;;14.10;3.20;;;12.30;63.00;;;;;;5051194;28;20927;-71
2023/05/18 06:47:46;;;;;;;12.37;2.97;;;12.30;63.40;;;;;;5039931;28;20418;-71
2023/05/18 06:50:31;;;;;;;13.97;3.67;;;12.40;62.20;;;;;;5045043;28;20526;-72
2023/05/18 06:53:17;;;;;;;9.50;3.00;;;12.40;61.90;;;;;;5047152;28;20540;-75
2023/05/18 06:56:03;;;;;;;9.73;2.80;;;12.50;61.90;;;;;;5055749;28;20437;-71
2023/05/18 06:58:50;;;;;;;9.70;3.13;;;12.60;61.50;;;;;;5049932;28;20451;-74
2023/05/18 07:01:36;;;;;;;18.47;3.47;;;12.60;59.00;;;;;;5049597;28;20470;-71
2023/05/18 07:04:22;;;;;;;11.83;3.00;;;12.70;61.30;;;;;;5052679;28;20473;-71
2023/05/18 07:07:07;;;;;;;10.00;3.07;;;12.80;60.50;;;;;;5048873;28;20428;-71
2023/05/18 07:09:53;;;;;;;10.13;3.17;;;12.80;59.50;;;;;;5049909;28;20526;-72
2023/05/18 07:12:39;;;;;;;10.30;3.10;;;12.80;60.70;;;;;;5041861;28;20604;-70
2023/05/18 07:15:25;;;;;;;8.43;2.50;;;12.90;61.30;;;;;;5048649;28;20454;-71
2023/05/18 07:18:11;;;;;;;8.13;2.73;;;13.10;59.50;;;;;;5051222;28;20449;-71
2023/05/18 07:20:57;;;;;;;11.03;2.77;;;13.20;59.30;;;;;;5050634;28;21003;-71
2023/05/18 07:23:42;;;;;;;6.10;2.43;;;13.30;58.60;;;;;;5050822;28;20992;-72
2023/05/18 07:26:28;;;;;;;4.40;3.10;;;13.30;58.80;;;;;;5049692;28;20521;-71
2023/05/18 07:29:13;;;;;;;9.23;3.80;;;13.40;58.30;;;;;;5049393;28;20902;-71
2023/05/18 07:32:00;;;;;;;13.20;2.50;;;13.50;55.80;;;;;;5048491;28;20456;-70
2023/05/18 07:34:46;;;;;;;9.63;2.60;;;13.50;54.60;;;;;;5049830;28;20453;-71
2023/05/18 07:37:31;;;;;;;7.27;2.80;;;13.50;53.40;;;;;;5053727;28;20550;-71
2023/05/18 07:40:17;;;;;;;7.97;2.40;;;13.60;50.90;;;;;;5054707;28;20414;-71
2023/05/18 07:43:02;;;;;;;6.77;2.30;;;13.60;52.70;;;;;;5054869;28;20423;-71
2023/05/18 07:45:48;;;;;;;10.87;3.00;;;13.60;52.60;;;;;;5051391;28;20822;-71
2023/05/18 07:48:34;;;;;;;10.37;2.53;;;13.70;53.90;;;;;;5042092;28;20509;-71
2023/05/18 07:51:20;;;;;;;10.27;2.80;;;13.80;53.90;;;;;;5037535;28;20442;-71
2023/05/18 07:54:06;;;;;;;6.70;2.97;;;13.90;51.50;;;;;;5036994;28;20956;-72
2023/05/18 07:56:51;;;;;;;6.90;2.23;;;13.90;53.80;;;;;;5048901;28;21145;-71
2023/05/18 07:59:36;;;;;;;9.53;3.73;;;14.00;53.60;;;;;;5069517;28;20404;-71
2023/05/18 08:02:22;;;;;;;16.73;2.93;;;14.00;50.70;;;;;;5044652;28;20457;-71
2023/05/18 08:05:10;;;;;;;8.97;2.80;;;14.10;51.40;;;;;;5049813;28;20997;-72
2023/05/18 08:07:55;;;;;;;7.90;2.00;;;14.20;50.80;;;;;;5040766;28;20425;-71
2023/05/18 08:10:41;;;;;;;19.60;3.97;;;14.20;49.20;;;;;;5052664;28;20570;-72
2023/05/18 08:13:27;;;;;;;6.30;2.03;;;14.30;49.40;;;;;;5057925;28;20480;-72
2023/05/18 08:16:12;;;;;;;10.43;2.97;;;14.40;49.00;;;;;;5053893;28;20420;-71
2023/05/18 08:18:58;;;;;;;7.27;3.33;;;14.50;47.40;;;;;;5055618;28;20803;-72
2023/05/18 08:21:45;;;;;;;12.47;2.97;;;14.60;48.00;;;;;;5048858;28;20450;-71
2023/05/18 08:24:30;;;;;;;11.30;2.60;;;14.70;45.50;;;;;;5050397;28;20832;-73
2023/05/18 08:27:16;;;;;;;5.43;2.43;;;14.80;45.40;;;;;;5049119;28;20454;-71
2023/05/18 08:30:01;;;;;;;7.70;2.70;;;14.90;43.00;;;;;;5062759;28;20460;-71
2023/05/18 08:32:47;;;;;;;7.87;2.30;;;15.00;40.80;;;;;;5062009;28;20975;-72
2023/05/18 08:35:32;;;;;;;9.40;2.40;;;15.00;42.20;;;;;;5055609;28;20512;-73
2023/05/18 08:38:19;;;;;;;9.57;2.80;;;15.00;43.30;;;;;;5049857;28;20809;-72
2023/05/18 08:41:12;;;;;;;11.33;4.70;;;15.20;42.20;;;;;;5052964;28;20444;-73
2023/05/18 08:44:02;;;;;;;9.50;2.50;;;15.20;38.00;;;;;;5055932;28;20552;-71
2023/05/18 08:46:50;;;;;;;8.60;2.60;;;15.30;37.40;;;;;;5061374;28;20523;-71
2023/05/18 08:49:36;;;;;;;16.67;2.83;;;15.40;40.70;;;;;;5051773;28;20454;-73
2023/05/18 08:52:26;;;;;;;6.83;2.43;;;15.50;39.60;;;;;;5064664;22;20628;-93
2023/05/18 08:55:16;;;;;;;9.20;2.60;;;15.50;38.70;;;;;;5061331;22;20568;-72
2023/05/18 08:58:03;;;;;;;8.23;2.73;;;15.60;37.70;;;;;;5019188;28;20837;-72
2023/05/18 09:00:52;;;;;;;10.33;2.30;;;15.60;38.20;;;;;;5025427;28;20406;-72
2023/05/18 09:03:39;;;;;;;11.40;2.47;;;15.70;35.00;;;;;;5008895;28;20452;-72
2023/05/18 09:06:28;;;;;;;14.73;3.13;;;15.80;37.10;;;;;;5008803;28;20448;-72
2023/05/18 09:09:14;;;;;;;10.53;3.40;;;15.90;32.40;;;;;;5010668;28;20504;-71
2023/05/18 09:12:01;;;;;;;7.43;2.53;;;15.90;36.00;;;;;;5007342;28;20468;-72
2023/05/18 09:14:48;;;;;;;8.30;2.30;;;15.90;29.20;;;;;;5011939;28;20952;-70
2023/05/18 09:17:33;;;;;;;6.57;2.23;;;16.10;32.10;;;;;;5009320;28;20575;-72
2023/05/18 09:20:19;;;;;;;6.67;2.43;;;16.00;32.10;;;;;;5011027;28;20445;-71
2023/05/18 09:23:05;;;;;;;12.47;2.90;;;16.00;33.30;;;;;;5011629;28;20472;-71
2023/05/18 09:25:52;;;;;;;16.40;2.50;;;16.00;32.00;;;;;;5017044;28;20415;-71
2023/05/18 09:28:41;;;;;;;6.50;2.07;;;16.10;33.80;;;;;;5009455;28;20586;-71
2023/05/18 09:31:26;;;;;;;13.10;3.07;;;16.30;30.00;;;;;;5002980;28;20994;-71
2023/05/18 09:34:12;;;;;;;9.00;2.47;;;16.30;26.90;;;;;;5000709;28;20447;-71
2023/05/18 09:36:58;;;;;;;10.03;2.50;;;16.40;33.00;;;;;;5000323;28;20482;-71
2023/05/18 09:39:44;;;;;;;8.53;2.77;;;16.50;32.90;;;;;;5010192;28;20461;-71
2023/05/18 09:42:35;;;;;;;8.87;2.80;;;16.70;31.40;;;;;;5007074;28;20530;-72
2023/05/18 09:45:24;;;;;;;8.87;2.40;;;16.80;30.00;;;;;;5010812;28;20474;-72
2023/05/18 09:48:10;;;;;;;6.67;2.50;;;16.90;27.00;;;;;;5007455;28;20574;-72
2023/05/18 09:50:58;;;;;;;7.90;3.63;;;17.00;27.50;;;;;;5011387;28;21927;-71
2023/05/18 09:53:48;;;;;;;8.20;3.00;;;17.10;28.60;;;;;;5012202;28;20542;-71
2023/05/18 09:56:36;;;;;;;9.23;2.50;;;17.10;28.20;;;;;;5006777;28;20489;-71
2023/05/18 09:59:22;;;;;;;8.27;2.90;;;17.20;26.90;;;;;;5000845;28;20451;-71
2023/05/18 10:02:12;;;;;;;7.73;2.67;;;17.20;24.10;;;;;;5007350;28;20472;-71
2023/05/18 10:04:57;;;;;;;11.40;3.20;;;17.20;29.00;;;;;;5003724;28;20533;-70
2023/05/18 10:07:44;;;;;;;10.83;2.30;;;17.30;26.10;;;;;;5010404;28;20456;-70
2023/05/18 10:10:29;;;;;;;8.30;3.10;;;17.40;24.40;;;;;;5010317;28;20973;-71
2023/05/18 10:13:18;;;;;;;5.90;2.40;;;17.50;27.40;;;;;;5014207;28;20615;-70
2023/05/18 10:16:05;;;;;;;9.90;3.23;;;17.50;26.40;;;;;;5009536;28;20522;-70
2023/05/18 10:18:54;;;;;;;9.87;3.07;;;17.50;25.90;;;;;;5004126;28;20447;-71
2023/05/18 10:21:40;;;;;;;9.00;2.90;;;17.40;25.80;;;;;;5009511;28;20484;-70
2023/05/18 10:24:26;;;;;;;6.27;2.67;;;17.40;27.50;;;;;;5010965;28;20452;-71
2023/05/18 10:27:17;;;;;;;11.03;3.10;;;17.40;26.10;;;;;;5000650;28;20449;-70
2023/05/18 10:30:06;;;;;;;7.60;2.50;;;17.40;25.60;;;;;;5002493;28;20532;-71
2023/05/18 10:32:53;;;;;;;11.13;3.40;;;17.60;27.50;;;;;;5004504;28;20485;-69
2023/05/18 10:35:41;;;;;;;6.33;2.30;;;17.70;24.50;;;;;;5004826;28;21238;-71
2023/05/18 10:38:28;;;;;;;11.40;2.53;;;17.70;24.50;;;;;;5002183;28;20548;-71
2023/05/18 10:41:13;;;;;;;9.50;3.47;;;17.90;26.30;;;;;;5000401;28;20456;-71
2023/05/18 10:44:02;;;;;;;9.17;2.63;;;18.10;26.70;;;;;;5005269;28;20930;-71
2023/05/18 10:46:49;;;;;;;11.43;2.80;;;18.30;24.80;;;;;;5002898;28;20601;-70
2023/05/18 10:49:36;;;;;;;10.23;2.80;;;18.40;25.40;;;;;;5004196;28;20816;-71
2023/05/18 10:52:25;;;;;;;8.47;3.17;;;18.40;27.30;;;;;;5007299;28;20583;-70
2023/05/18 10:55:11;;;;;;;7.87;2.20;;;18.50;25.20;;;;;;5012368;28;20536;-71
2023/05/18 10:58:03;;;;;;;9.23;2.53;;;18.60;25.30;;;;;;5014304;28;20432;-70
2023/05/18 11:00:53;;;;;;;7.40;1.80;;;18.70;25.30;;;;;;5003824;28;20548;-70
2023/05/18 11:03:40;;;;;;;6.27;2.47;;;18.80;20.90;;;;;;5006895;28;20547;-72
2023/05/18 11:06:26;;;;;;;7.77;2.10;;;18.80;22.30;;;;;;5009613;28;21009;-71
2023/05/18 11:09:23;;;;;;;10.17;2.60;;;18.90;22.40;;;;;;5001453;28;20480;-71
2023/05/18 11:12:12;;;;;;;8.07;2.97;;;18.90;23.30;;;;;;5011935;28;20461;-71
2023/05/18 11:14:59;;;;;;;13.80;2.40;;;19.00;23.80;;;;;;5005154;28;20581;-72
2023/05/18 11:17:45;;;;;;;5.93;2.73;;;19.10;24.40;;;;;;5004369;28;20453;-72
2023/05/18 11:20:30;;;;;;;6.50;2.73;;;19.00;21.10;;;;;;5007724;28;20597;-72
2023/05/18 11:23:19;;;;;;;11.33;2.67;;;18.70;22.30;;;;;;4998295;28;20524;-71
2023/05/18 11:26:16;;;;;;;10.30;2.73;;;18.60;22.60;;;;;;5005291;28;20632;-72
2023/05/18 11:29:15;;;;;;;10.47;2.37;;;18.70;24.20;;;;;;5007472;28;20554;-71
2023/05/18 11:32:02;;;;;;;5.53;2.20;;;18.80;25.40;;;;;;5005168;28;21056;-72
2023/05/18 11:34:51;;;;;;;3.83;2.43;;;18.90;22.40;;;;;;5001984;28;20445;-72
2023/05/18 11:37:52;;;;;;;9.00;2.13;;;18.90;21.10;;;;;;5018283;28;20982;-72
2023/05/18 11:40:48;;;;;;;10.10;2.10;;;18.70;21.50;;;;;;5012236;28;20971;-72
2023/05/18 11:43:35;;;;;;;6.70;2.70;;;18.50;23.60;;;;;;5012862;28;20803;-72
2023/05/18 11:46:21;;;;;;;9.90;2.77;;;18.60;24.40;;;;;;5017092;28;20967;-72
2023/05/18 11:49:07;;;;;;;9.90;2.57;;;18.80;24.20;;;;;;5013840;28;20453;-71
2023/05/18 11:52:00;;;;;;;8.43;2.73;;;19.10;23.80;;;;;;5012990;28;20475;-72
2023/05/18 11:54:49;;;;;;;6.73;2.57;;;19.30;21.80;;;;;;5013945;28;20476;-72
2023/05/18 11:57:40;;;;;;;4.13;1.93;;;19.60;22.90;;;;;;5016468;28;20605;-72
2023/05/18 12:00:26;;;;;;;9.40;2.70;;;19.70;22.30;;;;;;5004699;28;20454;-72
2023/05/18 12:03:12;;;;;;;14.53;2.83;;;19.90;23.20;;;;;;5016953;28;20464;-72
2023/05/18 12:06:00;;;;;;;13.17;5.57;;;19.90;19.30;;;;;;5024547;28;20456;-72
2023/05/18 12:08:46;;;;;;;8.17;2.70;;;19.60;20.30;;;;;;5021453;28;20828;-72
2023/05/18 12:11:32;;;;;;;5.63;2.70;;;19.40;20.90;;;;;;5016026;28;20472;-72
2023/05/18 12:14:19;;;;;;;13.20;2.80;;;19.30;22.10;;;;;;5016261;28;20468;-72
2023/05/18 12:17:07;;;;;;;11.70;2.80;;;19.20;21.00;;;;;;5021360;28;20849;-71
2023/05/18 12:19:52;;;;;;;5.77;2.07;;;19.20;20.90;;;;;;5008339;28;20592;-72
2023/05/18 12:22:38;;;;;;;6.97;2.63;;;19.10;21.40;;;;;;5012447;28;20438;-71
2023/05/18 12:25:26;;;;;;;6.93;2.10;;;19.20;19.30;;;;;;5015457;28;20440;-70
2023/05/18 12:28:15;;;;;;;5.70;2.30;;;19.40;21.40;;;;;;5017116;28;20446;-72
2023/05/18 12:31:06;;;;;;;5.87;2.10;;;19.60;20.90;;;;;;5012088;28;20468;-72
2023/05/18 12:33:53;;;;;;;10.13;2.47;;;19.60;21.50;;;;;;5016914;28;20476;-72
2023/05/18 12:36:43;;;;;;;8.47;2.70;;;19.60;19.90;;;;;;5016315;28;20488;-72
2023/05/18 12:39:28;;;;;;;9.50;2.93;;;19.80;20.00;;;;;;5020947;28;20456;-71
2023/05/18 12:42:14;;;;;;;9.40;2.40;;;19.80;18.40;;;;;;5017711;28;20564;-72
2023/05/18 12:45:00;;;;;;;7.43;2.10;;;19.80;21.20;;;;;;5011094;28;20446;-72
2023/05/18 12:47:45;;;;;;;7.37;2.53;;;20.00;19.70;;;;;;5012252;28;20835;-72
2023/05/18 12:50:33;;;;;;;16.93;3.20;;;20.20;19.10;;;;;;5010126;28;20435;-72
2023/05/18 12:53:19;;;;;;;5.97;2.30;;;20.40;19.40;;;;;;5010541;28;20475;-71
2023/05/18 12:56:08;;;;;;;9.33;3.10;;;20.40;16.80;;;;;;5019047;28;21048;-72
2023/05/18 12:58:58;;;;;;;7.30;2.27;;;20.50;19.80;;;;;;5015865;28;20503;-72
2023/05/18 13:01:43;;;;;;;11.97;3.50;;;20.50;19.10;;;;;;5013164;28;20819;-72
2023/05/18 13:04:34;;;;;;;8.00;2.60;;;20.70;20.20;;;;;;5005180;28;20970;-72
2023/05/18 13:07:21;;;;;;;8.07;2.33;;;20.90;17.80;;;;;;5008206;28;20468;-72
2023/05/18 13:10:09;;;;;;;8.57;2.50;;;21.00;19.30;;;;;;5007800;28;20936;-72
2023/05/18 13:13:00;;;;;;;7.93;2.80;;;21.30;19.90;;;;;;5010844;28;20470;-71
2023/05/18 13:15:45;;;;;;;15.33;2.70;;;21.40;19.00;;;;;;5020735;28;20522;-72
2023/05/18 13:18:30;;;;;;;8.10;2.30;;;21.50;17.10;;;;;;5007446;28;20502;-72
2023/05/18 13:21:16;;;;;;;6.63;2.30;;;21.70;16.60;;;;;;5005719;28;20449;-71
2023/05/18 13:24:03;;;;;;;6.23;2.17;;;21.90;17.80;;;;;;5005143;28;20451;-72
2023/05/18 13:26:48;;;;;;;7.80;2.20;;;21.90;17.10;;;;;;5004495;28;20818;-73
2023/05/18 13:29:35;;;;;;;7.30;2.97;;;22.00;15.00;;;;;;5011025;28;20466;-71
2023/05/18 13:32:20;;;;;;;8.57;3.07;;;22.00;17.30;;;;;;5009229;28;20482;-71
2023/05/18 13:35:06;;;;;;;4.33;2.13;;;21.90;15.20;;;;;;5008061;28;20545;-71
2023/05/18 13:37:52;;;;;;;8.20;2.90;;;22.00;16.60;;;;;;5011838;28;21036;-71
2023/05/18 13:40:39;;;;;;;10.13;2.90;;;21.70;14.30;;;;;;4998236;28;20457;-72
2023/05/18 13:43:24;;;;;;;8.23;2.80;;;21.30;16.00;;;;;;5013711;28;20482;-72
2023/05/18 13:46:10;;;;;;;14.33;3.10;;;21.30;17.80;;;;;;5009167;28;20458;-73
2023/05/18 13:48:55;;;;;;;9.63;3.10;;;21.50;16.20;;;;;;5005945;28;20457;-72
2023/05/18 13:51:41;;;;;;;7.88;2.60;;;21.70;17.20;;;;;;4995991;28;20451;-70
2023/05/18 13:54:26;;;;;;;10.17;2.83;;;21.70;15.10;;;;;;5003156;28;20284;-71
2023/05/18 13:57:13;;;;;;;7.23;2.27;;;21.80;14.40;;;;;;5016881;28;20474;-71
2023/05/18 14:00:02;;;;;;;8.03;2.80;;;21.80;15.80;;;;;;5004265;28;20449;-71
2023/05/18 14:02:48;;;;;;;7.63;2.13;;;21.80;16.40;;;;;;5008986;28;20451;-71
2023/05/18 14:05:33;;;;;;;11.27;2.50;;;22.00;16.30;;;;;;5018446;28;20430;-71
2023/05/18 14:08:19;;;;;;;7.70;2.47;;;22.10;14.60;;;;;;5009055;28;20638;-70
2023/05/18 14:11:04;;;;;;;7.07;2.67;;;22.10;13.10;;;;;;5000365;28;20446;-71
2023/05/18 14:13:51;;;;;;;8.50;2.73;;;22.20;14.80;;;;;;5010599;28;21006;-71
2023/05/18 14:16:36;;;;;;;5.70;2.27;;;22.40;13.40;;;;;;5011207;28;20423;-71
2023/05/18 14:19:22;;;;;;;6.03;2.50;;;22.30;13.80;;;;;;5011914;28;20466;-71
2023/05/18 14:22:07;;;;;;;7.93;2.87;;;22.30;14.40;;;;;;5006539;28;20540;-71
2023/05/18 14:24:53;;;;;;;5.87;2.90;;;22.00;14.10;;;;;;5002986;28;20956;-71
2023/05/18 14:27:38;;;;;;;6.00;2.10;;;21.60;15.60;;;;;;5007868;28;20429;-71